sensor_id;sensor_type;location;lat;lon;timestamp;temperature;humidity
20722;DHT22;10522;52.198;9.890;2023-02-19T00:00:58;8.60;99.90
20722;DHT22;10522;52.198;9.890;2023-02-19T00:03:25;8.60;99.90
20722;DHT22;10522;52.198;9.890;2023-02-19T00:05:51;8.60;99.90
20722;DHT22;10522;52.198;9.890;2023-02-19T00:08:17;8.60;99.90
20722;DHT22;10522;52.198;9.890;2023-02-19T00:10:42;8.70;99.90
20722;DHT22;10522;52.198;9.890;2023-02-19T00:13:08;8.70;99.90
20722;DHT22;10522;52.198;9.890;2023-02-19T00:15:33;8.70;99.90
20722;DHT22;10522;52.198;9.890;2023-02-19T00:17:59;8.60;99.90
20722;DHT22;10522;52.198;9.890;2023-02-19T00:20:25;8.70;99.90
20722;DHT22;10522;52.198;9.890;2023-02-19T00:22:51;8.60;99.90
20722;DHT22;10522;52.198;9.890;2023-02-19T00:25:16;8.60;99.90
20722;DHT22;10522;52.198;9.890;2023-02-19T00:27:42;8.60;99.90
20722;DHT22;10522;52.198;9.890;2023-02-19T00:30:08;8.60;99.90
20722;DHT22;10522;52.198;9.890;2023-02-19T00:32:33;8.60;99.90
20722;DHT22;10522;52.198;9.890;2023-02-19T00:34:59;8.60;99.90
20722;DHT22;10522;52.198;9.890;2023-02-19T00:37:25;8.60;99.90
20722;DHT22;10522;52.198;9.890;2023-02-19T00:39:50;8.60;99.90
20722;DHT22;10522;52.198;9.890;2023-02-19T00:42:16;8.70;99.90
20722;DHT22;10522;52.198;9.890;2023-02-19T00:44:41;8.70;99.90
20722;DHT22;10522;52.198;9.890;2023-02-19T00:47:07;8.70;99.90
20722;DHT22;10522;52.198;9.890;2023-02-19T00:49:32;8.80;99.90
20722;DHT22;10522;52.198;9.890;2023-02-19T00:51:58;8.80;99.90
20722;DHT22;10522;52.198;9.890;2023-02-19T00:54:23;8.90;99.90
20722;DHT22;10522;52.198;9.890;2023-02-19T00:56:50;8.90;99.90
20722;DHT22;10522;52.198;9.890;2023-02-19T00:59:15;9.00;99.90
20722;DHT22;10522;52.198;9.890;2023-02-19T01:01:42;9.00;99.90
20722;DHT22;10522;52.198;9.890;2023-02-19T01:04:09;9.00;99.90
20722;DHT22;10522;52.198;9.890;2023-02-19T01:06:34;9.00;99.90
20722;DHT22;10522;52.198;9.890;2023-02-19T01:09:02;9.00;99.90
20722;DHT22;10522;52.198;9.890;2023-02-19T01:11:27;9.00;99.90
20722;DHT22;10522;52.198;9.890;2023-02-19T01:13:56;9.00;99.90
20722;DHT22;10522;52.198;9.890;2023-02-19T01:16:22;9.10;99.90
20722;DHT22;10522;52.198;9.890;2023-02-19T01:18:49;9.00;99.90
20722;DHT22;10522;52.198;9.890;2023-02-19T01:21:17;9.00;99.90
20722;DHT22;10522;52.198;9.890;2023-02-19T01:23:43;9.00;99.90
20722;DHT22;10522;52.198;9.890;2023-02-19T01:26:12;8.90;99.90
20722;DHT22;10522;52.198;9.890;2023-02-19T01:28:38;9.00;99.90
20722;DHT22;10522;52.198;9.890;2023-02-19T01:31:06;9.00;99.90
20722;DHT22;10522;52.198;9.890;2023-02-19T01:33:32;9.00;99.90
20722;DHT22;10522;52.198;9.890;2023-02-19T01:35:58;9.00;99.90
20722;DHT22;10522;52.198;9.890;2023-02-19T01:38:23;9.10;99.90
20722;DHT22;10522;52.198;9.890;2023-02-19T01:40:56;9.10;99.90
20722;DHT22;10522;52.198;9.890;2023-02-19T01:43:22;9.10;99.90
20722;DHT22;10522;52.198;9.890;2023-02-19T01:45:48;9.10;99.90
20722;DHT22;10522;52.198;9.890;2023-02-19T01:48:24;9.10;99.90
20722;DHT22;10522;52.198;9.890;2023-02-19T01:50:53;9.00;99.90
20722;DHT22;10522;52.198;9.890;2023-02-19T01:53:23;9.00;99.90
20722;DHT22;10522;52.198;9.890;2023-02-19T01:55:52;8.90;99.90
20722;DHT22;10522;52.198;9.890;2023-02-19T01:58:20;8.90;99.90
20722;DHT22;10522;52.198;9.890;2023-02-19T02:00:46;9.00;99.90
20722;DHT22;10522;52.198;9.890;2023-02-19T02:03:12;8.90;99.90
20722;DHT22;10522;52.198;9.890;2023-02-19T02:08:50;9.00;99.90
20722;DHT22;10522;52.198;9.890;2023-02-19T02:11:36;9.10;99.90
20722;DHT22;10522;52.198;9.890;2023-02-19T02:14:03;9.00;99.90
20722;DHT22;10522;52.198;9.890;2023-02-19T02:16:54;8.90;99.90
20722;DHT22;10522;52.198;9.890;2023-02-19T02:22:20;8.80;99.90
20722;DHT22;10522;52.198;9.890;2023-02-19T02:30:32;8.50;99.90
20722;DHT22;10522;52.198;9.890;2023-02-19T02:33:24;8.50;99.90
20722;DHT22;10522;52.198;9.890;2023-02-19T02:38:29;8.40;99.90
20722;DHT22;10522;52.198;9.890;2023-02-19T02:40:57;8.40;99.90
20722;DHT22;10522;52.198;9.890;2023-02-19T02:43:23;8.40;99.90
20722;DHT22;10522;52.198;9.890;2023-02-19T02:45:49;8.50;99.90
20722;DHT22;10522;52.198;9.890;2023-02-19T02:48:21;8.70;99.90
20722;DHT22;10522;52.198;9.890;2023-02-19T02:53:27;8.80;99.90
20722;DHT22;10522;52.198;9.890;2023-02-19T02:56:14;8.80;99.90
20722;DHT22;10522;52.198;9.890;2023-02-19T02:58:41;8.90;99.90
20722;DHT22;10522;52.198;9.890;2023-02-19T03:01:17;8.90;99.90
20722;DHT22;10522;52.198;9.890;2023-02-19T03:04:10;9.00;99.90
20722;DHT22;10522;52.198;9.890;2023-02-19T03:06:37;9.00;99.90
20722;DHT22;10522;52.198;9.890;2023-02-19T03:09:16;9.10;99.90
20722;DHT22;10522;52.198;9.890;2023-02-19T03:11:46;9.00;99.90
20722;DHT22;10522;52.198;9.890;2023-02-19T03:14:40;9.00;99.90
20722;DHT22;10522;52.198;9.890;2023-02-19T03:17:36;9.00;99.90
20722;DHT22;10522;52.198;9.890;2023-02-19T03:20:23;9.00;99.90
20722;DHT22;10522;52.198;9.890;2023-02-19T03:22:50;9.00;99.90
20722;DHT22;10522;52.198;9.890;2023-02-19T03:25:19;9.00;99.90
20722;DHT22;10522;52.198;9.890;2023-02-19T03:28:07;9.10;99.90
20722;DHT22;10522;52.198;9.890;2023-02-19T03:30:36;9.10;99.90
20722;DHT22;10522;52.198;9.890;2023-02-19T03:33:11;9.00;99.90
20722;DHT22;10522;52.198;9.890;2023-02-19T03:35:48;9.00;99.90
20722;DHT22;10522;52.198;9.890;2023-02-19T03:41:06;9.10;99.90
20722;DHT22;10522;52.198;9.890;2023-02-19T03:46:21;9.00;99.90
20722;DHT22;10522;52.198;9.890;2023-02-19T03:48:53;9.00;99.90
20722;DHT22;10522;52.198;9.890;2023-02-19T03:51:43;9.00;99.90
20722;DHT22;10522;52.198;9.890;2023-02-19T03:54:33;9.10;99.90
20722;DHT22;10522;52.198;9.890;2023-02-19T03:57:01;9.00;99.90
20722;DHT22;10522;52.198;9.890;2023-02-19T04:03:19;9.10;99.90
20722;DHT22;10522;52.198;9.890;2023-02-19T04:05:28;8.90;99.90
20722;DHT22;10522;52.198;9.890;2023-02-19T04:08:01;8.30;99.90
20722;DHT22;10522;52.198;9.890;2023-02-19T04:10:28;7.80;99.90
20722;DHT22;10522;52.198;9.890;2023-02-19T04:13:02;7.50;99.90
20722;DHT22;10522;52.198;9.890;2023-02-19T04:15:32;7.30;99.90
20722;DHT22;10522;52.198;9.890;2023-02-19T04:18:01;7.20;99.90
20722;DHT22;10522;52.198;9.890;2023-02-19T04:20:32;7.10;99.90
20722;DHT22;10522;52.198;9.890;2023-02-19T04:22:58;7.10;99.90
20722;DHT22;10522;52.198;9.890;2023-02-19T04:25:25;7.10;99.90
20722;DHT22;10522;52.198;9.890;2023-02-19T04:27:52;7.00;99.90
20722;DHT22;10522;52.198;9.890;2023-02-19T04:30:18;6.90;99.90
20722;DHT22;10522;52.198;9.890;2023-02-19T04:32:43;6.90;99.90
20722;DHT22;10522;52.198;9.890;2023-02-19T04:35:09;6.90;99.90
20722;DHT22;10522;52.198;9.890;2023-02-19T04:37:35;6.80;99.90
20722;DHT22;10522;52.198;9.890;2023-02-19T04:40:00;6.80;99.90
20722;DHT22;10522;52.198;9.890;2023-02-19T04:42:26;6.70;99.90
20722;DHT22;10522;52.198;9.890;2023-02-19T04:44:52;6.70;99.90
20722;DHT22;10522;52.198;9.890;2023-02-19T04:47:17;6.70;99.90
20722;DHT22;10522;52.198;9.890;2023-02-19T04:49:45;6.70;99.90
20722;DHT22;10522;52.198;9.890;2023-02-19T04:52:11;6.70;99.90
20722;DHT22;10522;52.198;9.890;2023-02-19T04:54:36;6.60;99.90
20722;DHT22;10522;52.198;9.890;2023-02-19T04:57:02;6.50;99.90
20722;DHT22;10522;52.198;9.890;2023-02-19T04:59:27;6.50;99.90
20722;DHT22;10522;52.198;9.890;2023-02-19T05:01:53;6.50;99.90
20722;DHT22;10522;52.198;9.890;2023-02-19T05:04:19;6.50;99.90
20722;DHT22;10522;52.198;9.890;2023-02-19T05:06:44;6.40;99.90
20722;DHT22;10522;52.198;9.890;2023-02-19T05:09:10;6.40;99.90
20722;DHT22;10522;52.198;9.890;2023-02-19T05:11:35;6.40;99.90
20722;DHT22;10522;52.198;9.890;2023-02-19T05:14:01;6.30;99.90
20722;DHT22;10522;52.198;9.890;2023-02-19T05:16:26;6.40;99.90
20722;DHT22;10522;52.198;9.890;2023-02-19T05:18:52;6.30;99.90
20722;DHT22;10522;52.198;9.890;2023-02-19T05:21:18;6.30;99.90
20722;DHT22;10522;52.198;9.890;2023-02-19T05:23:44;6.30;99.90
20722;DHT22;10522;52.198;9.890;2023-02-19T05:26:19;6.30;99.90
20722;DHT22;10522;52.198;9.890;2023-02-19T05:28:46;6.30;99.90
20722;DHT22;10522;52.198;9.890;2023-02-19T05:31:12;6.30;99.90
20722;DHT22;10522;52.198;9.890;2023-02-19T05:33:38;6.20;99.90
20722;DHT22;10522;52.198;9.890;2023-02-19T05:36:08;6.10;99.90
20722;DHT22;10522;52.198;9.890;2023-02-19T05:38:35;6.10;99.90
20722;DHT22;10522;52.198;9.890;2023-02-19T05:41:30;6.10;99.90
20722;DHT22;10522;52.198;9.890;2023-02-19T05:43:56;6.00;99.90
20722;DHT22;10522;52.198;9.890;2023-02-19T05:46:25;6.00;99.90
20722;DHT22;10522;52.198;9.890;2023-02-19T05:48:51;6.00;99.90
20722;DHT22;10522;52.198;9.890;2023-02-19T05:51:20;6.00;99.90
20722;DHT22;10522;52.198;9.890;2023-02-19T05:53:46;5.90;99.90
20722;DHT22;10522;52.198;9.890;2023-02-19T05:58:49;5.70;99.90
20722;DHT22;10522;52.198;9.890;2023-02-19T06:01:20;5.70;99.90
20722;DHT22;10522;52.198;9.890;2023-02-19T06:03:46;5.70;99.90
20722;DHT22;10522;52.198;9.890;2023-02-19T06:06:16;5.70;99.90
20722;DHT22;10522;52.198;9.890;2023-02-19T06:08:42;5.70;99.90
20722;DHT22;10522;52.198;9.890;2023-02-19T06:11:08;5.60;99.90
20722;DHT22;10522;52.198;9.890;2023-02-19T06:13:33;5.50;99.90
20722;DHT22;10522;52.198;9.890;2023-02-19T06:16:01;5.50;99.90
20722;DHT22;10522;52.198;9.890;2023-02-19T06:18:27;5.40;99.90
20722;DHT22;10522;52.198;9.890;2023-02-19T06:20:52;5.20;99.90
20722;DHT22;10522;52.198;9.890;2023-02-19T06:23:18;5.20;99.90
20722;DHT22;10522;52.198;9.890;2023-02-19T06:25:44;5.10;99.90
20722;DHT22;10522;52.198;9.890;2023-02-19T06:28:10;5.00;99.90
20722;DHT22;10522;52.198;9.890;2023-02-19T06:30:36;5.00;99.90
20722;DHT22;10522;52.198;9.890;2023-02-19T06:33:01;5.00;99.90
20722;DHT22;10522;52.198;9.890;2023-02-19T06:35:27;5.00;99.90
20722;DHT22;10522;52.198;9.890;2023-02-19T06:37:53;4.90;99.90
20722;DHT22;10522;52.198;9.890;2023-02-19T06:40:18;4.90;99.90
20722;DHT22;10522;52.198;9.890;2023-02-19T06:42:44;4.90;99.90
20722;DHT22;10522;52.198;9.890;2023-02-19T06:45:10;4.90;99.90
20722;DHT22;10522;52.198;9.890;2023-02-19T06:47:35;4.80;99.90
20722;DHT22;10522;52.198;9.890;2023-02-19T06:50:01;4.80;99.90
20722;DHT22;10522;52.198;9.890;2023-02-19T06:52:27;4.80;99.90
20722;DHT22;10522;52.198;9.890;2023-02-19T06:54:53;4.80;99.90
20722;DHT22;10522;52.198;9.890;2023-02-19T06:57:18;4.60;99.90
20722;DHT22;10522;52.198;9.890;2023-02-19T06:59:45;4.40;99.90
20722;DHT22;10522;52.198;9.890;2023-02-19T07:02:11;4.20;99.90
20722;DHT22;10522;52.198;9.890;2023-02-19T07:04:43;4.10;99.90
20722;DHT22;10522;52.198;9.890;2023-02-19T07:07:10;4.10;99.90
20722;DHT22;10522;52.198;9.890;2023-02-19T07:09:36;4.20;99.90
20722;DHT22;10522;52.198;9.890;2023-02-19T07:12:02;4.10;99.90
20722;DHT22;10522;52.198;9.890;2023-02-19T07:14:27;4.00;99.90
20722;DHT22;10522;52.198;9.890;2023-02-19T07:16:54;4.10;99.90
20722;DHT22;10522;52.198;9.890;2023-02-19T07:19:20;4.10;99.90
20722;DHT22;10522;52.198;9.890;2023-02-19T07:21:45;4.10;99.90
20722;DHT22;10522;52.198;9.890;2023-02-19T07:24:11;4.10;99.90
20722;DHT22;10522;52.198;9.890;2023-02-19T07:26:37;4.00;99.90
20722;DHT22;10522;52.198;9.890;2023-02-19T07:29:03;4.10;99.90
20722;DHT22;10522;52.198;9.890;2023-02-19T07:31:28;4.10;99.90
20722;DHT22;10522;52.198;9.890;2023-02-19T07:33:54;4.00;99.90
20722;DHT22;10522;52.198;9.890;2023-02-19T07:36:22;4.10;99.90
20722;DHT22;10522;52.198;9.890;2023-02-19T07:38:58;4.20;99.90
20722;DHT22;10522;52.198;9.890;2023-02-19T07:41:25;4.20;99.90
20722;DHT22;10522;52.198;9.890;2023-02-19T07:43:52;4.20;99.90
20722;DHT22;10522;52.198;9.890;2023-02-19T07:46:19;4.10;99.90
20722;DHT22;10522;52.198;9.890;2023-02-19T07:48:45;4.10;99.90
20722;DHT22;10522;52.198;9.890;2023-02-19T07:51:13;4.20;99.90
20722;DHT22;10522;52.198;9.890;2023-02-19T07:53:41;4.10;99.90
20722;DHT22;10522;52.198;9.890;2023-02-19T07:56:07;4.10;99.90
20722;DHT22;10522;52.198;9.890;2023-02-19T07:58:34;4.10;99.90
20722;DHT22;10522;52.198;9.890;2023-02-19T08:01:17;4.20;99.90
20722;DHT22;10522;52.198;9.890;2023-02-19T08:03:44;4.30;99.90
20722;DHT22;10522;52.198;9.890;2023-02-19T08:06:10;4.30;99.90
20722;DHT22;10522;52.198;9.890;2023-02-19T08:08:39;4.20;99.90
20722;DHT22;10522;52.198;9.890;2023-02-19T08:11:06;4.30;99.90
20722;DHT22;10522;52.198;9.890;2023-02-19T08:13:51;4.30;99.90
20722;DHT22;10522;52.198;9.890;2023-02-19T08:16:18;4.40;99.90
20722;DHT22;10522;52.198;9.890;2023-02-19T08:18:45;4.50;99.90
20722;DHT22;10522;52.198;9.890;2023-02-19T08:21:11;4.50;99.90
20722;DHT22;10522;52.198;9.890;2023-02-19T08:23:37;4.50;99.90
20722;DHT22;10522;52.198;9.890;2023-02-19T08:26:03;4.50;99.90
20722;DHT22;10522;52.198;9.890;2023-02-19T08:28:29;4.60;99.90
20722;DHT22;10522;52.198;9.890;2023-02-19T08:31:00;4.50;99.90
20722;DHT22;10522;52.198;9.890;2023-02-19T08:33:27;4.50;99.90
20722;DHT22;10522;52.198;9.890;2023-02-19T08:35:53;4.50;99.90
20722;DHT22;10522;52.198;9.890;2023-02-19T08:38:19;4.50;99.90
20722;DHT22;10522;52.198;9.890;2023-02-19T08:40:45;4.60;99.90
20722;DHT22;10522;52.198;9.890;2023-02-19T08:43:13;4.60;99.90
20722;DHT22;10522;52.198;9.890;2023-02-19T08:45:41;4.70;99.90
20722;DHT22;10522;52.198;9.890;2023-02-19T08:48:08;4.70;99.90
20722;DHT22;10522;52.198;9.890;2023-02-19T08:50:34;4.70;99.90
20722;DHT22;10522;52.198;9.890;2023-02-19T08:53:00;4.80;99.90
20722;DHT22;10522;52.198;9.890;2023-02-19T08:55:26;5.00;99.90
20722;DHT22;10522;52.198;9.890;2023-02-19T08:57:52;5.00;99.90
20722;DHT22;10522;52.198;9.890;2023-02-19T09:00:18;5.00;99.90
20722;DHT22;10522;52.198;9.890;2023-02-19T09:02:46;5.00;99.90
20722;DHT22;10522;52.198;9.890;2023-02-19T09:05:11;5.00;99.90
20722;DHT22;10522;52.198;9.890;2023-02-19T09:07:38;5.00;99.90
20722;DHT22;10522;52.198;9.890;2023-02-19T09:10:03;5.10;99.90
20722;DHT22;10522;52.198;9.890;2023-02-19T09:12:29;5.20;99.90
20722;DHT22;10522;52.198;9.890;2023-02-19T09:14:55;5.10;99.90
20722;DHT22;10522;52.198;9.890;2023-02-19T09:17:20;5.10;99.90
20722;DHT22;10522;52.198;9.890;2023-02-19T09:19:47;5.20;99.90
20722;DHT22;10522;52.198;9.890;2023-02-19T09:22:13;5.20;99.90
20722;DHT22;10522;52.198;9.890;2023-02-19T09:24:38;5.30;99.90
20722;DHT22;10522;52.198;9.890;2023-02-19T09:27:04;5.40;99.90
20722;DHT22;10522;52.198;9.890;2023-02-19T09:29:29;5.40;99.90
20722;DHT22;10522;52.198;9.890;2023-02-19T09:31:56;5.50;99.90
20722;DHT22;10522;52.198;9.890;2023-02-19T09:34:23;5.20;99.90
20722;DHT22;10522;52.198;9.890;2023-02-19T09:36:49;5.20;99.90
20722;DHT22;10522;52.198;9.890;2023-02-19T09:39:15;5.20;99.90
20722;DHT22;10522;52.198;9.890;2023-02-19T09:41:56;5.20;99.90
20722;DHT22;10522;52.198;9.890;2023-02-19T09:44:34;5.40;99.90
20722;DHT22;10522;52.198;9.890;2023-02-19T09:47:03;5.50;99.90
20722;DHT22;10522;52.198;9.890;2023-02-19T09:49:36;5.50;99.90
20722;DHT22;10522;52.198;9.890;2023-02-19T09:52:10;5.70;99.90
20722;DHT22;10522;52.198;9.890;2023-02-19T09:54:37;5.80;99.90
20722;DHT22;10522;52.198;9.890;2023-02-19T09:57:04;6.10;99.90
20722;DHT22;10522;52.198;9.890;2023-02-19T09:59:36;6.00;99.90
20722;DHT22;10522;52.198;9.890;2023-02-19T10:02:17;5.70;99.90
20722;DHT22;10522;52.198;9.890;2023-02-19T10:04:45;5.90;99.90
20722;DHT22;10522;52.198;9.890;2023-02-19T10:07:13;5.90;99.90
20722;DHT22;10522;52.198;9.890;2023-02-19T10:09:39;6.20;99.90
20722;DHT22;10522;52.198;9.890;2023-02-19T10:12:18;6.50;99.90
20722;DHT22;10522;52.198;9.890;2023-02-19T10:14:50;6.30;99.90
20722;DHT22;10522;52.198;9.890;2023-02-19T10:17:26;6.20;99.90
20722;DHT22;10522;52.198;9.890;2023-02-19T10:19:53;6.20;99.90
20722;DHT22;10522;52.198;9.890;2023-02-19T10:22:20;6.00;99.90
20722;DHT22;10522;52.198;9.890;2023-02-19T10:24:49;6.10;99.90
20722;DHT22;10522;52.198;9.890;2023-02-19T10:27:16;6.30;99.90
20722;DHT22;10522;52.198;9.890;2023-02-19T10:29:42;6.20;99.90
20722;DHT22;10522;52.198;9.890;2023-02-19T10:32:20;6.30;99.90
20722;DHT22;10522;52.198;9.890;2023-02-19T10:35:10;6.60;99.90
20722;DHT22;10522;52.198;9.890;2023-02-19T10:37:44;6.70;99.90
20722;DHT22;10522;52.198;9.890;2023-02-19T10:40:22;6.50;99.90
20722;DHT22;10522;52.198;9.890;2023-02-19T10:42:52;6.50;99.90
20722;DHT22;10522;52.198;9.890;2023-02-19T10:45:25;6.60;99.90
20722;DHT22;10522;52.198;9.890;2023-02-19T10:47:52;6.50;99.90
20722;DHT22;10522;52.198;9.890;2023-02-19T10:50:28;6.30;99.90
20722;DHT22;10522;52.198;9.890;2023-02-19T10:52:56;6.50;99.90
20722;DHT22;10522;52.198;9.890;2023-02-19T10:55:29;6.70;99.90
20722;DHT22;10522;52.198;9.890;2023-02-19T10:57:56;7.00;99.90
20722;DHT22;10522;52.198;9.890;2023-02-19T11:00:27;6.80;99.90
20722;DHT22;10522;52.198;9.890;2023-02-19T11:03:29;6.70;99.90
20722;DHT22;10522;52.198;9.890;2023-02-19T11:06:01;6.60;99.90
20722;DHT22;10522;52.198;9.890;2023-02-19T11:08:28;6.60;99.90
20722;DHT22;10522;52.198;9.890;2023-02-19T11:10:53;6.60;99.90
20722;DHT22;10522;52.198;9.890;2023-02-19T11:13:30;6.50;99.90
20722;DHT22;10522;52.198;9.890;2023-02-19T11:15:58;6.50;99.90
20722;DHT22;10522;52.198;9.890;2023-02-19T11:18:31;6.60;99.90
20722;DHT22;10522;52.198;9.890;2023-02-19T11:21:00;7.10;99.90
20722;DHT22;10522;52.198;9.890;2023-02-19T11:23:42;7.50;99.90
20722;DHT22;10522;52.198;9.890;2023-02-19T11:26:18;7.20;99.90
20722;DHT22;10522;52.198;9.890;2023-02-19T11:28:45;6.80;99.90
20722;DHT22;10522;52.198;9.890;2023-02-19T11:31:26;6.70;99.90
20722;DHT22;10522;52.198;9.890;2023-02-19T11:36:41;6.40;99.90
20722;DHT22;10522;52.198;9.890;2023-02-19T11:39:19;6.50;99.90
20722;DHT22;10522;52.198;9.890;2023-02-19T11:50:16;7.00;99.90
20722;DHT22;10522;52.198;9.890;2023-02-19T12:15:59;7.10;99.90
20722;DHT22;10522;52.198;9.890;2023-02-19T12:30:00;7.70;99.90
20722;DHT22;10522;52.198;9.890;2023-02-19T12:43:20;7.30;99.90
20722;DHT22;10522;52.198;9.890;2023-02-19T12:46:10;7.30;99.90
20722;DHT22;10522;52.198;9.890;2023-02-19T12:51:27;7.70;99.90
20722;DHT22;10522;52.198;9.890;2023-02-19T12:54:20;7.80;99.90
20722;DHT22;10522;52.198;9.890;2023-02-19T12:56:54;7.80;99.90
20722;DHT22;10522;52.198;9.890;2023-02-19T13:00:02;7.70;99.90
20722;DHT22;10522;52.198;9.890;2023-02-19T13:02:32;7.60;99.90
20722;DHT22;10522;52.198;9.890;2023-02-19T13:12:52;8.20;99.90
20722;DHT22;10522;52.198;9.890;2023-02-19T13:15:30;8.40;99.90
20722;DHT22;10522;52.198;9.890;2023-02-19T13:17:58;8.20;99.90
20722;DHT22;10522;52.198;9.890;2023-02-19T13:20:30;8.10;99.90
20722;DHT22;10522;52.198;9.890;2023-02-19T13:26:00;7.60;99.90
20722;DHT22;10522;52.198;9.890;2023-02-19T13:37:44;7.70;99.90
20722;DHT22;10522;52.198;9.890;2023-02-19T13:40:35;7.90;99.90
20722;DHT22;10522;52.198;9.890;2023-02-19T13:43:04;8.00;99.90
20722;DHT22;10522;52.198;9.890;2023-02-19T13:48:14;8.20;99.90
20722;DHT22;10522;52.198;9.890;2023-02-19T13:50:50;8.20;99.90
20722;DHT22;10522;52.198;9.890;2023-02-19T13:59:22;7.70;99.90
20722;DHT22;10522;52.198;9.890;2023-02-19T14:04:23;7.90;99.90
20722;DHT22;10522;52.198;9.890;2023-02-19T14:14:48;8.00;99.90
20722;DHT22;10522;52.198;9.890;2023-02-19T14:30:46;7.80;99.90
20722;DHT22;10522;52.198;9.890;2023-02-19T14:33:15;7.80;99.90
20722;DHT22;10522;52.198;9.890;2023-02-19T14:35:44;7.70;99.90
20722;DHT22;10522;52.198;9.890;2023-02-19T14:38:34;7.60;99.90
20722;DHT22;10522;52.198;9.890;2023-02-19T14:41:00;7.70;99.90
20722;DHT22;10522;52.198;9.890;2023-02-19T14:43:27;7.70;99.90
20722;DHT22;10522;52.198;9.890;2023-02-19T14:45:56;7.70;99.90
20722;DHT22;10522;52.198;9.890;2023-02-19T14:48:27;7.80;99.90
20722;DHT22;10522;52.198;9.890;2023-02-19T14:51:06;7.70;99.90
20722;DHT22;10522;52.198;9.890;2023-02-19T14:53:37;7.50;99.90
20722;DHT22;10522;52.198;9.890;2023-02-19T14:56:04;7.60;99.90
20722;DHT22;10522;52.198;9.890;2023-02-19T14:58:32;7.60;99.90
20722;DHT22;10522;52.198;9.890;2023-02-19T15:00:58;7.40;99.90
20722;DHT22;10522;52.198;9.890;2023-02-19T15:03:33;7.40;99.90
20722;DHT22;10522;52.198;9.890;2023-02-19T15:06:10;7.40;99.90
20722;DHT22;10522;52.198;9.890;2023-02-19T15:08:41;7.60;99.90
20722;DHT22;10522;52.198;9.890;2023-02-19T15:11:11;8.20;99.90
20722;DHT22;10522;52.198;9.890;2023-02-19T15:13:39;8.70;99.90
20722;DHT22;10522;52.198;9.890;2023-02-19T15:16:15;8.50;99.90
20722;DHT22;10522;52.198;9.890;2023-02-19T15:18:43;8.30;99.90
20722;DHT22;10522;52.198;9.890;2023-02-19T15:21:23;8.30;99.90
20722;DHT22;10522;52.198;9.890;2023-02-19T15:23:50;8.30;99.90
20722;DHT22;10522;52.198;9.890;2023-02-19T15:26:24;8.60;99.90
20722;DHT22;10522;52.198;9.890;2023-02-19T15:29:00;9.00;99.90
20722;DHT22;10522;52.198;9.890;2023-02-19T15:31:26;9.30;99.90
20722;DHT22;10522;52.198;9.890;2023-02-19T15:33:52;9.10;99.90
20722;DHT22;10522;52.198;9.890;2023-02-19T15:36:27;8.80;99.90
20722;DHT22;10522;52.198;9.890;2023-02-19T15:38:55;9.20;99.90
20722;DHT22;10522;52.198;9.890;2023-02-19T15:41:23;8.90;99.90
20722;DHT22;10522;52.198;9.890;2023-02-19T15:47:38;8.00;99.90
20722;DHT22;10522;52.198;9.890;2023-02-19T15:50:42;7.50;99.90
20722;DHT22;10522;52.198;9.890;2023-02-19T15:53:17;7.10;99.90
20722;DHT22;10522;52.198;9.890;2023-02-19T15:55:58;6.70;99.90
20722;DHT22;10522;52.198;9.890;2023-02-19T15:58:48;6.50;99.90
20722;DHT22;10522;52.198;9.890;2023-02-19T16:03:45;6.30;99.90
20722;DHT22;10522;52.198;9.890;2023-02-19T16:27:36;5.40;99.90
20722;DHT22;10522;52.198;9.890;2023-02-19T16:30:58;5.30;99.90
20722;DHT22;10522;52.198;9.890;2023-02-19T16:33:45;5.10;99.90
20722;DHT22;10522;52.198;9.890;2023-02-19T16:36:40;5.00;99.90
20722;DHT22;10522;52.198;9.890;2023-02-19T16:39:21;4.90;99.90
20722;DHT22;10522;52.198;9.890;2023-02-19T16:42:19;4.80;99.90
20722;DHT22;10522;52.198;9.890;2023-02-19T16:44:49;4.60;99.90
20722;DHT22;10522;52.198;9.890;2023-02-19T16:54:55;4.30;99.90
20722;DHT22;10522;52.198;9.890;2023-02-19T16:57:21;4.20;99.90
20722;DHT22;10522;52.198;9.890;2023-02-19T16:59:47;4.10;99.90
20722;DHT22;10522;52.198;9.890;2023-02-19T17:02:17;4.00;99.90
20722;DHT22;10522;52.198;9.890;2023-02-19T17:04:44;3.90;99.90
20722;DHT22;10522;52.198;9.890;2023-02-19T17:07:14;3.80;99.90
20722;DHT22;10522;52.198;9.890;2023-02-19T17:09:41;3.70;99.90
20722;DHT22;10522;52.198;9.890;2023-02-19T17:12:11;3.60;99.90
20722;DHT22;10522;52.198;9.890;2023-02-19T17:14:37;3.60;99.90
20722;DHT22;10522;52.198;9.890;2023-02-19T17:17:03;3.50;99.90
20722;DHT22;10522;52.198;9.890;2023-02-19T17:19:29;3.50;99.90
20722;DHT22;10522;52.198;9.890;2023-02-19T17:21:55;3.60;99.90
20722;DHT22;10522;52.198;9.890;2023-02-19T17:24:21;3.60;99.90
20722;DHT22;10522;52.198;9.890;2023-02-19T17:26:47;3.80;99.90
20722;DHT22;10522;52.198;9.890;2023-02-19T17:29:13;3.80;99.90
20722;DHT22;10522;52.198;9.890;2023-02-19T17:31:39;3.80;99.90
20722;DHT22;10522;52.198;9.890;2023-02-19T17:34:05;3.80;99.90
20722;DHT22;10522;52.198;9.890;2023-02-19T17:36:31;3.80;99.90
20722;DHT22;10522;52.198;9.890;2023-02-19T17:38:59;3.80;99.90
20722;DHT22;10522;52.198;9.890;2023-02-19T17:41:25;3.80;99.90
20722;DHT22;10522;52.198;9.890;2023-02-19T17:43:50;4.00;99.90
20722;DHT22;10522;52.198;9.890;2023-02-19T17:46:17;4.10;99.90
20722;DHT22;10522;52.198;9.890;2023-02-19T17:48:43;4.20;99.90
20722;DHT22;10522;52.198;9.890;2023-02-19T17:51:09;4.10;99.90
20722;DHT22;10522;52.198;9.890;2023-02-19T17:53:34;4.10;99.90
20722;DHT22;10522;52.198;9.890;2023-02-19T17:56:00;4.10;99.90
20722;DHT22;10522;52.198;9.890;2023-02-19T17:58:26;4.00;99.90
20722;DHT22;10522;52.198;9.890;2023-02-19T18:00:51;4.00;99.90
20722;DHT22;10522;52.198;9.890;2023-02-19T18:03:17;4.00;99.90
20722;DHT22;10522;52.198;9.890;2023-02-19T18:05:43;4.20;99.90
20722;DHT22;10522;52.198;9.890;2023-02-19T18:08:08;4.30;99.90
20722;DHT22;10522;52.198;9.890;2023-02-19T18:10:34;4.40;99.90
20722;DHT22;10522;52.198;9.890;2023-02-19T18:13:00;4.40;99.90
20722;DHT22;10522;52.198;9.890;2023-02-19T18:15:27;4.40;99.90
20722;DHT22;10522;52.198;9.890;2023-02-19T18:17:54;4.40;99.90
20722;DHT22;10522;52.198;9.890;2023-02-19T18:20:25;4.40;99.90
20722;DHT22;10522;52.198;9.890;2023-02-19T18:22:52;4.40;99.90
20722;DHT22;10522;52.198;9.890;2023-02-19T18:25:19;4.40;99.90
20722;DHT22;10522;52.198;9.890;2023-02-19T18:27:46;4.40;99.90
20722;DHT22;10522;52.198;9.890;2023-02-19T18:30:13;4.30;99.90
20722;DHT22;10522;52.198;9.890;2023-02-19T18:32:41;4.20;99.90
20722;DHT22;10522;52.198;9.890;2023-02-19T18:35:07;4.20;99.90
20722;DHT22;10522;52.198;9.890;2023-02-19T18:37:33;4.20;99.90
20722;DHT22;10522;52.198;9.890;2023-02-19T18:40:00;4.20;99.90
20722;DHT22;10522;52.198;9.890;2023-02-19T18:42:26;4.10;99.90
20722;DHT22;10522;52.198;9.890;2023-02-19T18:44:53;4.10;99.90
20722;DHT22;10522;52.198;9.890;2023-02-19T18:47:20;4.10;99.90
20722;DHT22;10522;52.198;9.890;2023-02-19T18:49:47;4.10;99.90
20722;DHT22;10522;52.198;9.890;2023-02-19T18:52:14;4.10;99.90
20722;DHT22;10522;52.198;9.890;2023-02-19T18:54:40;4.10;99.90
20722;DHT22;10522;52.198;9.890;2023-02-19T18:57:05;4.10;99.90